Time;durP1;ratioP1;P1;durP2;ratioP2;P2;SDS_P1;SDS_P2;PMS_P1;PMS_P2;Temp;Humidity;BMP_temperature;BMP_pressure;BME280_temperature;BME280_humidity;BME280_pressure;Samples;Min_cycle;Max_cycle;Signal;HPM_P1;HPM_P2
2022/01/16 00:01:34;;;;;;;45.67;29.45;;;4.50;91.30;;;;;;5098345;28;20086;-44
2022/01/16 00:04:09;;;;;;;39.63;28.00;;;4.50;91.30;;;;;;5096972;28;20446;-45
2022/01/16 00:06:36;;;;;;;41.67;29.52;;;4.50;91.20;;;;;;5100690;28;20049;-49
2022/01/16 00:09:06;;;;;;;42.58;28.60;;;4.50;91.20;;;;;;5106534;28;20024;-44
2022/01/16 00:11:32;;;;;;;44.67;29.38;;;4.50;91.00;;;;;;5095953;28;20487;-45
2022/01/16 00:13:58;;;;;;;46.20;30.33;;;4.50;91.00;;;;;;5089709;28;20046;-48
2022/01/16 00:16:25;;;;;;;41.97;29.02;;;4.60;90.90;;;;;;5095235;28;20090;-45
2022/01/16 00:18:52;;;;;;;47.78;28.58;;;4.50;90.70;;;;;;5077383;28;20047;-45
2022/01/16 00:21:27;;;;;;;42.67;27.23;;;4.60;90.70;;;;;;5078055;28;20024;-46
2022/01/16 00:23:55;;;;;;;51.30;29.02;;;4.60;90.50;;;;;;5094958;28;20027;-44
2022/01/16 00:26:23;;;;;;;45.58;28.10;;;4.60;90.40;;;;;;5094562;28;20031;-50
2022/01/16 00:28:52;;;;;;;43.72;28.30;;;4.50;90.40;;;;;;5097173;28;20020;-47
2022/01/16 00:31:21;;;;;;;42.08;26.38;;;4.60;90.40;;;;;;5096903;28;20508;-45
2022/01/16 00:33:47;;;;;;;45.05;27.83;;;4.60;90.20;;;;;;5105921;28;20059;-45
2022/01/16 00:36:18;;;;;;;44.60;27.95;;;4.60;90.10;;;;;;5114692;28;20122;-50
2022/01/16 00:38:45;;;;;;;43.00;27.13;;;4.60;90.00;;;;;;5088715;28;20032;-45
2022/01/16 00:41:18;;;;;;;42.70;26.48;;;4.60;90.00;;;;;;5114987;28;20342;-48
2022/01/16 00:43:45;;;;;;;39.70;24.77;;;4.60;89.80;;;;;;5104135;28;20093;-46
2022/01/16 00:46:15;;;;;;;43.65;27.05;;;4.50;89.70;;;;;;5113457;28;20448;-47
2022/01/16 00:48:42;;;;;;;41.72;23.85;;;4.50;89.60;;;;;;5110762;28;20472;-45
2022/01/16 00:51:10;;;;;;;47.58;27.13;;;4.50;89.70;;;;;;5097531;28;20469;-45
2022/01/16 00:53:39;;;;;;;42.90;26.60;;;4.50;89.60;;;;;;5091523;28;20625;-46
2022/01/16 00:56:08;;;;;;;38.08;25.20;;;4.50;89.60;;;;;;5085457;28;20114;-45
2022/01/16 00:58:37;;;;;;;38.35;24.63;;;4.60;89.70;;;;;;5112687;28;20031;-47
2022/01/16 01:01:04;;;;;;;45.25;27.50;;;4.60;89.60;;;;;;5112085;28;20092;-46
2022/01/16 01:03:34;;;;;;;38.90;22.92;;;4.60;89.50;;;;;;5109863;28;20020;-45
2022/01/16 01:06:01;;;;;;;43.38;24.98;;;4.60;89.30;;;;;;5108979;28;20019;-44
2022/01/16 01:08:29;;;;;;;38.78;24.55;;;4.50;89.20;;;;;;5094464;28;20069;-46
2022/01/16 01:10:57;;;;;;;42.25;25.70;;;4.50;89.10;;;;;;5113261;28;20022;-48
2022/01/16 01:13:33;;;;;;;37.58;23.27;;;4.50;89.10;;;;;;5103412;28;20364;-46
2022/01/16 01:16:04;;;;;;;38.30;24.38;;;4.50;89.10;;;;;;5077488;28;20409;-45
2022/01/16 01:18:33;;;;;;;40.70;23.63;;;4.50;88.90;;;;;;5094074;28;20057;-50
2022/01/16 01:21:03;;;;;;;41.87;25.03;;;4.40;89.00;;;;;;5113736;28;20019;-45
2022/01/16 01:23:32;;;;;;;46.25;26.52;;;4.40;88.80;;;;;;5110873;28;20015;-46
2022/01/16 01:26:01;;;;;;;51.60;29.73;;;4.40;88.60;;;;;;5101255;28;20111;-50
2022/01/16 01:28:31;;;;;;;42.37;25.00;;;4.40;88.50;;;;;;5082489;28;20051;-46
2022/01/16 01:30:58;;;;;;;51.65;28.02;;;4.40;88.40;;;;;;5096352;28;20024;-44
2022/01/16 01:33:25;;;;;;;47.40;25.83;;;4.40;88.50;;;;;;5110632;28;20089;-45
2022/01/16 01:35:52;;;;;;;53.35;28.88;;;4.30;88.40;;;;;;5078904;28;20032;-45
2022/01/16 01:38:20;;;;;;;53.50;28.65;;;4.40;88.50;;;;;;5103814;28;20044;-47
2022/01/16 01:40:48;;;;;;;56.50;28.98;;;4.30;88.50;;;;;;5113027;28;20042;-45
2022/01/16 01:51:44;;;;;;;56.60;30.75;;;4.30;88.60;;;;;;5093676;28;20373;-46
2022/01/16 01:54:13;;;;;;;44.10;25.13;;;4.30;88.90;;;;;;5102970;28;20019;-46
2022/01/16 01:56:40;;;;;;;42.88;24.58;;;4.30;88.90;;;;;;5097066;28;20024;-45
2022/01/16 01:59:06;;;;;;;38.95;24.30;;;4.30;88.70;;;;;;5093658;28;20024;-45
2022/01/16 02:01:33;;;;;;;39.45;23.48;;;4.20;88.70;;;;;;5093594;28;20032;-45
2022/01/16 02:04:03;;;;;;;34.80;21.08;;;4.10;88.50;;;;;;5099797;28;20024;-46
2022/01/16 02:06:33;;;;;;;36.08;20.80;;;4.10;88.50;;;;;;5095176;28;20101;-45
2022/01/16 02:09:04;;;;;;;30.17;20.38;;;4.00;88.40;;;;;;5114103;28;20340;-46
2022/01/16 02:11:32;;;;;;;34.80;20.27;;;3.90;88.30;;;;;;5094385;28;20019;-45
2022/01/16 02:29:30;;;;;;;43.50;24.85;;;3.90;88.30;;;;;;5093274;28;20101;-45
2022/01/16 02:31:23;;;;;;;38.53;20.98;;;3.90;88.20;;;;;;5098490;28;20663;-46
2022/01/16 02:36:47;;;;;;;36.05;23.27;;;3.80;88.20;;;;;;5109577;28;20499;-50
2022/01/16 02:39:16;;;;;;;40.78;22.52;;;3.70;88.30;;;;;;5092842;28;20040;-45
2022/01/16 02:41:45;;;;;;;37.30;22.02;;;3.70;88.20;;;;;;5095495;28;20073;-45
2022/01/16 02:46:43;;;;;;;41.08;23.42;;;3.60;88.30;;;;;;5113427;28;20046;-46
2022/01/16 02:49:22;;;;;;;41.05;22.45;;;3.60;88.40;;;;;;5114655;28;20027;-45
2022/01/16 02:51:59;;;;;;;45.67;25.13;;;3.60;88.40;;;;;;5082435;28;20020;-46
2022/01/16 02:54:27;;;;;;;44.50;24.52;;;3.60;88.60;;;;;;5114969;28;20027;-45
2022/01/16 02:56:55;;;;;;;47.05;25.05;;;3.70;88.70;;;;;;5095174;28;20062;-45
2022/01/16 02:59:22;;;;;;;50.50;25.67;;;3.60;88.80;;;;;;5112791;28;20036;-46
2022/01/16 03:01:49;;;;;;;41.97;24.27;;;3.70;88.80;;;;;;5102324;28;20085;-46
2022/01/16 03:04:22;;;;;;;48.38;24.58;;;3.70;88.70;;;;;;5110201;28;20035;-45
2022/01/16 03:06:52;;;;;;;49.38;26.50;;;3.60;88.50;;;;;;5107961;28;20431;-45
2022/01/16 03:09:20;;;;;;;48.70;22.73;;;3.50;88.70;;;;;;5096121;28;20032;-47
2022/01/16 03:11:48;;;;;;;49.75;26.50;;;3.60;88.70;;;;;;5070489;28;20043;-46
2022/01/16 03:14:17;;;;;;;49.55;26.90;;;3.50;88.50;;;;;;5111275;28;20016;-46
2022/01/16 03:16:49;;;;;;;48.28;24.85;;;3.50;88.60;;;;;;5102121;28;20024;-49
2022/01/16 03:22:04;;;;;;;45.85;24.75;;;3.50;88.60;;;;;;5096241;28;20042;-46
2022/01/16 03:24:49;;;;;;;50.63;25.05;;;3.50;88.70;;;;;;5097918;28;20020;-45
2022/01/16 03:27:19;;;;;;;48.70;25.17;;;3.50;88.70;;;;;;5116710;28;20131;-46
2022/01/16 03:29:49;;;;;;;46.22;24.48;;;3.50;88.80;;;;;;5112593;28;20421;-45
2022/01/16 03:32:19;;;;;;;46.53;23.77;;;3.40;88.70;;;;;;5078100;28;20047;-46
2022/01/16 03:34:45;;;;;;;45.50;24.65;;;3.40;88.70;;;;;;5098734;28;20028;-45
2022/01/16 03:37:12;;;;;;;46.30;23.92;;;3.30;88.40;;;;;;5096057;28;20040;-45
2022/01/16 03:39:38;;;;;;;43.95;22.77;;;3.30;88.50;;;;;;5102103;28;20039;-46
2022/01/16 03:42:05;;;;;;;46.60;23.02;;;3.20;88.50;;;;;;5098205;28;20046;-45
2022/01/16 03:44:31;;;;;;;48.85;23.73;;;3.20;88.70;;;;;;5103618;28;20428;-44
2022/01/16 03:46:57;;;;;;;46.85;23.45;;;3.10;88.70;;;;;;5097143;28;20045;-45
2022/01/16 03:49:26;;;;;;;48.90;25.17;;;3.10;88.70;;;;;;5106368;28;20046;-46
2022/01/16 03:51:54;;;;;;;48.33;25.40;;;3.10;88.70;;;;;;5112681;28;20542;-45
2022/01/16 03:54:24;;;;;;;44.78;24.83;;;3.10;88.70;;;;;;5112907;28;20031;-45
2022/01/16 03:56:50;;;;;;;;;;;3.00;88.50;;;;;;5095962;28;20035;-45
2022/01/16 03:59:17;;;;;;;48.05;23.00;;;3.00;88.80;;;;;;5086945;28;20014;-46
2022/01/16 04:01:44;;;;;;;49.70;25.05;;;3.00;88.70;;;;;;5094323;28;20059;-45
2022/01/16 04:04:11;;;;;;;46.47;24.30;;;2.90;88.60;;;;;;5086535;28;20114;-44
2022/01/16 04:06:38;;;;;;;54.72;25.67;;;3.00;88.70;;;;;;5101400;28;20047;-44
2022/01/16 04:09:04;;;;;;;55.15;27.05;;;3.00;88.70;;;;;;5085318;28;20484;-45
2022/01/16 04:11:32;;;;;;;55.70;28.17;;;2.90;88.80;;;;;;5098115;28;20051;-46
2022/01/16 04:14:08;;;;;;;55.63;25.75;;;2.90;88.90;;;;;;5115110;28;20071;-45
2022/01/16 04:16:36;;;;;;;56.08;27.83;;;2.90;88.80;;;;;;5112829;28;20058;-45
2022/01/16 04:19:04;;;;;;;50.25;26.05;;;3.00;89.10;;;;;;5094886;28;20129;-50
2022/01/16 04:21:31;;;;;;;59.53;28.45;;;3.00;89.10;;;;;;5115103;28;20463;-47
2022/01/16 04:23:58;;;;;;;60.95;27.88;;;3.00;89.00;;;;;;5115292;28;20129;-45
2022/01/16 04:26:26;;;;;;;60.80;30.70;;;3.00;89.00;;;;;;5096390;28;20042;-46
2022/01/16 04:28:54;;;;;;;59.95;27.45;;;2.90;88.80;;;;;;5115142;28;20020;-47
2022/01/16 04:31:22;;;;;;;66.32;29.60;;;2.90;88.90;;;;;;5095758;28;20110;-47
2022/01/16 04:33:49;;;;;;;63.15;31.48;;;2.80;89.10;;;;;;5096839;28;20034;-45
2022/01/16 04:36:16;;;;;;;61.42;29.45;;;2.80;89.10;;;;;;5090496;28;20365;-44
2022/01/16 04:38:48;;;;;;;63.00;29.00;;;2.70;89.00;;;;;;5114908;28;20034;-45
2022/01/16 04:44:08;;;;;;;57.33;28.00;;;2.80;89.10;;;;;;5104387;28;20480;-45
2022/01/16 04:46:35;;;;;;;63.95;27.52;;;2.80;89.30;;;;;;5107663;28;20047;-45
2022/01/16 04:49:03;;;;;;;67.38;29.02;;;2.80;89.10;;;;;;5104196;28;20407;-43
2022/01/16 04:51:31;;;;;;;65.47;29.67;;;2.70;89.30;;;;;;5076831;28;20036;-46
2022/01/16 04:54:00;;;;;;;68.85;29.65;;;2.70;89.20;;;;;;5103030;28;20066;-46
2022/01/16 04:56:27;;;;;;;66.28;31.70;;;2.70;89.20;;;;;;5090410;28;20027;-45
2022/01/16 04:58:54;;;;;;;74.82;31.92;;;2.70;89.30;;;;;;5107302;28;20518;-45
2022/01/16 05:01:21;;;;;;;62.95;29.48;;;2.70;89.50;;;;;;5095819;28;20131;-47
2022/01/16 05:03:49;;;;;;;64.50;31.88;;;2.80;89.40;;;;;;5083108;28;20073;-46
2022/01/16 05:06:16;;;;;;;76.40;33.38;;;2.70;89.30;;;;;;5112058;28;20031;-44
2022/01/16 05:08:43;;;;;;;70.63;31.17;;;2.70;89.60;;;;;;5112105;28;20085;-45
2022/01/16 05:11:11;;;;;;;68.53;33.45;;;2.70;89.30;;;;;;5112140;28;20441;-47
2022/01/16 05:18:54;;;;;;;66.05;31.00;;;2.70;89.50;;;;;;5105733;28;20039;-46
2022/01/16 05:21:21;;;;;;;70.70;31.55;;;2.70;89.60;;;;;;5112735;28;20096;-47
2022/01/16 05:23:48;;;;;;;65.03;31.02;;;2.70;89.60;;;;;;5078956;28;20032;-45
2022/01/16 05:26:19;;;;;;;75.55;32.97;;;2.50;89.60;;;;;;5072416;28;20341;-45
2022/01/16 05:28:45;;;;;;;68.97;31.98;;;2.50;89.70;;;;;;5107890;28;20328;-48
2022/01/16 05:31:13;;;;;;;65.35;31.30;;;2.60;89.90;;;;;;5113945;28;20088;-44
2022/01/16 05:33:39;;;;;;;69.70;31.60;;;2.60;89.90;;;;;;5114056;28;20032;-45
2022/01/16 05:36:06;;;;;;;68.20;30.08;;;2.60;89.90;;;;;;5101906;28;20028;-44
2022/01/16 05:38:35;;;;;;;69.15;31.77;;;2.60;89.80;;;;;;5093727;28;20082;-46
2022/01/16 05:41:02;;;;;;;68.97;33.00;;;2.60;89.90;;;;;;5111734;28;20084;-46
2022/01/16 05:43:29;;;;;;;77.10;32.05;;;2.70;90.00;;;;;;5095244;28;20024;-44
2022/01/16 05:45:56;;;;;;;66.07;29.25;;;2.70;90.00;;;;;;5113550;28;20028;-45
2022/01/16 05:48:23;;;;;;;72.95;31.90;;;2.70;90.00;;;;;;5093070;28;20102;-45
2022/01/16 05:50:48;;;;;;;73.20;30.42;;;2.70;90.00;;;;;;5086149;28;20110;-44
2022/01/16 05:53:15;;;;;;;68.47;31.52;;;2.70;90.00;;;;;;5113887;28;20099;-46
2022/01/16 05:55:42;;;;;;;66.25;31.50;;;2.70;90.10;;;;;;5113862;28;20085;-44
2022/01/16 05:58:09;;;;;;;73.63;32.13;;;2.70;90.00;;;;;;5113694;28;20028;-43
2022/01/16 06:00:38;;;;;;;74.78;32.40;;;2.70;90.10;;;;;;5100877;28;20085;-46
2022/01/16 06:03:09;;;;;;;72.57;31.67;;;2.70;90.20;;;;;;5103490;28;20059;-44
2022/01/16 06:05:37;;;;;;;72.78;31.58;;;2.70;90.20;;;;;;5112986;28;20273;-45
2022/01/16 06:08:09;;;;;;;75.32;32.63;;;2.70;90.30;;;;;;5113637;28;20046;-45
2022/01/16 06:10:38;;;;;;;87.13;33.80;;;2.70;90.30;;;;;;5102184;28;20124;-46
2022/01/16 06:13:05;;;;;;;77.93;37.15;;;2.80;90.50;;;;;;5094866;28;20039;-45
2022/01/16 06:15:33;;;;;;;79.35;34.58;;;2.80;90.30;;;;;;5095924;28;20028;-45
2022/01/16 06:18:00;;;;;;;76.45;33.10;;;2.80;90.50;;;;;;5088630;28;20037;-45
2022/01/16 06:20:27;;;;;;;74.68;34.72;;;2.70;90.50;;;;;;5113513;28;20028;-48
2022/01/16 06:22:55;;;;;;;79.05;33.95;;;2.80;90.60;;;;;;5098190;28;20180;-45
2022/01/16 06:25:23;;;;;;;79.40;34.22;;;2.80;90.60;;;;;;5107108;28;20106;-44
2022/01/16 06:27:50;;;;;;;81.72;36.85;;;2.80;90.60;;;;;;5117481;28;20049;-45
2022/01/16 06:30:16;;;;;;;72.53;35.22;;;2.80;90.60;;;;;;5107992;28;20097;-45
2022/01/16 06:32:41;;;;;;;81.43;35.55;;;2.80;90.70;;;;;;5097242;28;20449;-45
2022/01/16 06:35:09;;;;;;;85.45;35.30;;;2.90;90.60;;;;;;5111315;28;20027;-46
2022/01/16 06:37:37;;;;;;;75.47;33.88;;;2.80;90.60;;;;;;5117153;28;20480;-50
2022/01/16 06:40:05;;;;;;;94.90;36.30;;;2.80;90.70;;;;;;5106763;28;20035;-46
2022/01/16 06:42:32;;;;;;;73.55;34.58;;;2.90;90.80;;;;;;5110521;28;20171;-45
2022/01/16 06:44:59;;;;;;;85.13;36.92;;;2.90;90.70;;;;;;5097463;28;20032;-45
2022/01/16 06:47:25;;;;;;;75.40;34.95;;;2.90;90.80;;;;;;5116967;27;20438;-45
2022/01/16 06:49:52;;;;;;;77.63;34.10;;;2.90;90.70;;;;;;5093724;28;20027;-44
2022/01/16 06:52:18;;;;;;;84.38;35.95;;;2.90;90.90;;;;;;5111938;28;20070;-43
2022/01/16 06:54:45;;;;;;;85.22;38.47;;;2.90;90.80;;;;;;5104811;28;20110;-45
2022/01/16 06:57:12;;;;;;;72.70;32.97;;;2.90;90.80;;;;;;5106333;28;20036;-44
2022/01/16 06:59:39;;;;;;;82.32;35.03;;;2.90;90.70;;;;;;5105266;28;20032;-45
2022/01/16 07:02:07;;;;;;;81.28;34.95;;;2.90;90.70;;;;;;5108030;28;20036;-44
2022/01/16 07:04:34;;;;;;;86.45;35.15;;;2.90;90.70;;;;;;5106246;28;20444;-44
2022/01/16 07:07:01;;;;;;;79.05;35.22;;;2.90;90.80;;;;;;5105101;28;20460;-45
2022/01/16 07:09:27;;;;;;;99.68;39.63;;;2.90;90.80;;;;;;5106011;28;20400;-44
2022/01/16 07:11:55;;;;;;;87.07;35.15;;;2.90;90.80;;;;;;5104628;28;20054;-44
2022/01/16 07:14:22;;;;;;;84.97;36.40;;;3.00;90.80;;;;;;5089294;28;20102;-45
2022/01/16 07:16:49;;;;;;;91.97;37.53;;;3.00;90.90;;;;;;5107361;28;20054;-44
2022/01/16 07:19:15;;;;;;;87.95;37.67;;;3.00;90.90;;;;;;5116514;28;20035;-45
2022/01/16 07:21:42;;;;;;;97.00;38.72;;;3.00;90.90;;;;;;5088956;28;20032;-45
2022/01/16 07:24:15;;;;;;;93.63;36.63;;;3.00;90.90;;;;;;5096163;28;20099;-43
2022/01/16 07:26:43;;;;;;;90.45;37.38;;;3.00;90.90;;;;;;5081715;28;20105;-44
2022/01/16 07:29:13;;;;;;;90.20;38.22;;;3.00;91.00;;;;;;5116148;28;20046;-45
2022/01/16 07:31:40;;;;;;;83.05;36.05;;;3.00;91.10;;;;;;5074643;28;20020;-44
2022/01/16 07:34:08;;;;;;;95.30;38.60;;;3.00;91.10;;;;;;5077820;28;20028;-44
2022/01/16 07:36:35;;;;;;;100.78;41.08;;;3.00;91.10;;;;;;5084957;28;20036;-44
2022/01/16 07:39:06;;;;;;;99.63;39.15;;;3.10;91.20;;;;;;5099686;28;20039;-47
2022/01/16 07:41:34;;;;;;;105.78;39.50;;;3.10;91.20;;;;;;5116307;28;20440;-44
2022/01/16 07:44:02;;;;;;;92.03;36.78;;;3.10;91.20;;;;;;5114261;28;20509;-45
2022/01/16 07:46:28;;;;;;;93.30;39.90;;;3.10;91.10;;;;;;5110717;28;20092;-45
2022/01/16 07:48:55;;;;;;;94.20;37.88;;;3.20;91.20;;;;;;5093629;28;20638;-44
2022/01/16 07:51:24;;;;;;;93.72;40.75;;;3.20;91.20;;;;;;5113829;28;20424;-44
2022/01/16 07:53:55;;;;;;;97.53;40.00;;;3.10;91.20;;;;;;5100644;28;20062;-46
2022/01/16 07:56:22;;;;;;;87.22;37.55;;;3.20;91.30;;;;;;5105602;28;20016;-44
2022/01/16 07:58:51;;;;;;;89.05;35.75;;;3.30;91.30;;;;;;5115426;28;20032;-44
2022/01/16 08:01:18;;;;;;;90.70;39.75;;;3.20;91.30;;;;;;5107938;28;20032;-45
2022/01/16 08:03:45;;;;;;;96.22;37.53;;;3.30;91.40;;;;;;5096976;28;20032;-44
2022/01/16 08:06:14;;;;;;;99.57;39.00;;;3.30;91.40;;;;;;5106048;28;20028;-43
2022/01/16 08:08:41;;;;;;;87.88;37.47;;;3.30;91.40;;;;;;5115585;28;20038;-44
2022/01/16 08:11:09;;;;;;;94.68;37.92;;;3.40;91.60;;;;;;5114768;28;20024;-43
2022/01/16 08:13:36;;;;;;;85.85;36.17;;;3.40;91.60;;;;;;5114041;28;20035;-44
2022/01/16 08:16:06;;;;;;;99.95;37.55;;;3.40;91.60;;;;;;5113853;28;20095;-42
2022/01/16 08:18:32;;;;;;;100.28;38.53;;;3.40;91.60;;;;;;5099262;28;20441;-45
2022/01/16 08:20:59;;;;;;;89.85;37.17;;;3.40;91.80;;;;;;5084956;28;20027;-44
2022/01/16 08:23:26;;;;;;;93.13;37.63;;;3.50;91.80;;;;;;5115037;28;20031;-44
2022/01/16 08:25:53;;;;;;;90.78;37.90;;;3.50;91.80;;;;;;5114345;28;20202;-44
2022/01/16 08:28:20;;;;;;;99.00;39.13;;;3.50;91.80;;;;;;5115091;28;20024;-43
2022/01/16 08:30:47;;;;;;;91.80;38.50;;;3.50;91.80;;;;;;5114609;28;20024;-44
2022/01/16 08:33:16;;;;;;;83.25;36.63;;;3.50;91.90;;;;;;5115153;28;20767;-44
2022/01/16 08:35:43;;;;;;;81.10;34.45;;;3.60;91.90;;;;;;5109821;28;20618;-46
2022/01/16 08:38:10;;;;;;;92.15;39.25;;;3.60;91.90;;;;;;5114538;28;20040;-43
2022/01/16 08:40:37;;;;;;;91.20;34.58;;;3.60;91.90;;;;;;5114667;28;20046;-45
2022/01/16 08:43:08;;;;;;;92.30;37.60;;;3.70;92.00;;;;;;5114455;28;20062;-44
2022/01/16 08:45:37;;;;;;;78.57;35.00;;;3.70;92.00;;;;;;5096166;28;20494;-45
2022/01/16 08:48:05;;;;;;;94.65;37.83;;;3.70;92.10;;;;;;5112703;28;20051;-48
2022/01/16 08:50:36;;;;;;;90.95;37.47;;;3.70;92.00;;;;;;5114076;28;20099;-48
2022/01/16 08:53:03;;;;;;;94.30;37.58;;;3.70;92.00;;;;;;5113507;28;20463;-46
2022/01/16 08:55:33;;;;;;;91.40;39.13;;;3.80;92.20;;;;;;5095664;28;20356;-49
2022/01/16 08:58:00;;;;;;;96.47;37.95;;;3.70;92.10;;;;;;5113740;28;20449;-44
2022/01/16 09:00:28;;;;;;;92.18;36.35;;;3.80;92.30;;;;;;5110201;28;20437;-46
2022/01/16 09:02:54;;;;;;;93.53;38.85;;;3.90;92.50;;;;;;5111865;28;20028;-46
2022/01/16 09:05:21;;;;;;;99.10;39.95;;;4.10;92.60;;;;;;5085746;28;20059;-48
2022/01/16 09:07:48;;;;;;;97.05;38.28;;;4.10;92.50;;;;;;5102359;28;20050;-46
2022/01/16 09:10:15;;;;;;;86.47;39.15;;;4.10;92.20;;;;;;5076891;28;20059;-46
2022/01/16 09:12:41;;;;;;;87.30;38.13;;;4.20;92.20;;;;;;5103754;28;20532;-46
2022/01/16 09:15:09;;;;;;;90.57;37.92;;;4.30;92.50;;;;;;5091155;28;20104;-46
2022/01/16 09:17:37;;;;;;;87.55;41.65;;;4.20;91.80;;;;;;5096069;28;20032;-46
2022/01/16 09:20:08;;;;;;;96.72;41.17;;;4.30;92.00;;;;;;5094356;28;20077;-45
2022/01/16 09:22:39;;;;;;;88.75;39.03;;;4.30;91.80;;;;;;5093861;28;20055;-46
2022/01/16 09:25:07;;;;;;;88.57;36.58;;;4.20;91.50;;;;;;5109438;28;20164;-46
2022/01/16 09:27:34;;;;;;;88.45;39.50;;;4.20;91.60;;;;;;5096396;28;20557;-45
2022/01/16 09:30:00;;;;;;;95.85;40.25;;;4.20;91.50;;;;;;5112659;28;20039;-45
2022/01/16 09:32:26;;;;;;;94.35;41.60;;;4.20;91.50;;;;;;5112415;28;20027;-45
2022/01/16 09:34:56;;;;;;;104.07;44.65;;;4.20;91.60;;;;;;5112556;28;20039;-49
2022/01/16 09:37:25;;;;;;;93.93;40.60;;;4.20;91.60;;;;;;5101505;28;20032;-44
2022/01/16 09:39:52;;;;;;;95.10;41.13;;;4.20;91.70;;;;;;5093800;28;20115;-46
2022/01/16 09:42:21;;;;;;;94.00;40.25;;;4.20;91.70;;;;;;5098799;28;20449;-45
2022/01/16 09:44:48;;;;;;;98.57;42.50;;;4.20;91.80;;;;;;5107859;28;20081;-44
2022/01/16 09:47:15;;;;;;;103.22;41.53;;;4.20;91.90;;;;;;5094524;28;20075;-45
2022/01/16 09:49:42;;;;;;;91.15;40.75;;;4.20;92.00;;;;;;5095571;28;20064;-47
2022/01/16 09:52:08;;;;;;;94.20;42.47;;;4.20;92.00;;;;;;5075751;28;20116;-49
2022/01/16 09:54:37;;;;;;;100.72;44.28;;;4.20;92.00;;;;;;5097267;28;20103;-47
2022/01/16 09:57:05;;;;;;;105.88;43.90;;;4.30;92.00;;;;;;5111983;28;20082;-48
2022/01/16 09:59:32;;;;;;;102.13;43.47;;;4.30;92.10;;;;;;5079023;28;20447;-46
2022/01/16 10:01:59;;;;;;;96.05;43.38;;;4.30;92.10;;;;;;5097817;28;20481;-48
2022/01/16 10:04:38;;;;;;;96.88;46.63;;;4.30;92.10;;;;;;5099319;28;20044;-49
2022/01/16 10:07:09;;;;;;;101.57;44.33;;;4.30;92.10;;;;;;5109078;28;20019;-50
2022/01/16 10:09:38;;;;;;;95.72;45.40;;;4.30;92.10;;;;;;5117226;28;20391;-50
2022/01/16 10:12:17;;;;;;;104.73;45.57;;;4.40;92.20;;;;;;5115475;28;20028;-51
2022/01/16 10:14:47;;;;;;;102.22;44.03;;;4.40;92.20;;;;;;5098345;28;20479;-49
2022/01/16 10:17:44;;;;;;;98.30;41.72;;;4.40;92.20;;;;;;5098645;28;20231;-48
2022/01/16 10:20:14;;;;;;;90.32;41.47;;;4.40;92.30;;;;;;5113657;28;20475;-52
2022/01/16 10:22:45;;;;;;;96.43;45.08;;;4.50;92.40;;;;;;5085915;28;20055;-50
2022/01/16 10:25:14;;;;;;;98.32;44.88;;;4.50;92.30;;;;;;5097293;28;20034;-49
2022/01/16 10:27:46;;;;;;;93.32;45.05;;;4.60;92.30;;;;;;5106702;28;20483;-52
2022/01/16 10:30:17;;;;;;;91.15;46.38;;;4.60;92.30;;;;;;5096946;28;20039;-47
2022/01/16 10:32:45;;;;;;;91.40;42.03;;;4.70;92.20;;;;;;5116460;28;20062;-48
2022/01/16 10:35:35;;;;;;;83.38;43.15;;;4.80;92.30;;;;;;5082326;28;20028;-49
2022/01/16 10:38:02;;;;;;;89.35;42.80;;;4.80;92.30;;;;;;5109137;28;20034;-47
2022/01/16 10:40:37;;;;;;;100.28;44.40;;;4.90;92.30;;;;;;5117105;28;20031;-46
2022/01/16 10:43:13;;;;;;;80.68;39.50;;;5.00;92.20;;;;;;5103650;28;20047;-45
2022/01/16 10:45:42;;;;;;;76.72;39.35;;;5.00;92.20;;;;;;5109819;28;20082;-46
2022/01/16 10:48:11;;;;;;;80.57;39.78;;;5.10;92.10;;;;;;5116718;28;20097;-45
2022/01/16 10:50:44;;;;;;;85.00;42.72;;;5.20;92.10;;;;;;5116578;28;20024;-46
2022/01/16 10:53:30;;;;;;;74.20;40.90;;;5.30;92.20;;;;;;5116987;28;20030;-46
2022/01/16 10:56:14;;;;;;;74.85;38.47;;;5.50;92.20;;;;;;5101132;28;20407;-45
2022/01/16 10:58:41;;;;;;;71.88;37.67;;;5.60;91.90;;;;;;5107075;28;20058;-45
2022/01/16 11:01:14;;;;;;;76.65;38.45;;;5.80;91.80;;;;;;5114895;28;20059;-47
2022/01/16 11:03:44;;;;;;;64.57;36.85;;;5.90;91.30;;;;;;5116558;28;20050;-45
2022/01/16 11:06:15;;;;;;;60.50;34.95;;;5.90;90.90;;;;;;5105730;28;20054;-44
2022/01/16 11:08:53;;;;;;;54.92;34.40;;;6.00;91.00;;;;;;5116465;28;20024;-44
2022/01/16 11:11:22;;;;;;;58.30;34.88;;;6.00;90.70;;;;;;5115679;28;20469;-45
2022/01/16 11:13:50;;;;;;;56.03;29.50;;;6.00;90.70;;;;;;5109207;28;20023;-45
2022/01/16 11:16:17;;;;;;;56.53;32.25;;;6.10;90.70;;;;;;5090299;28;20177;-44
2022/01/16 11:18:53;;;;;;;57.88;32.33;;;6.10;90.30;;;;;;5096374;28;20097;-44
2022/01/16 11:21:31;;;;;;;48.40;30.33;;;6.30;90.80;;;;;;5098433;28;20119;-45
2022/01/16 11:26:51;;;;;;;56.05;30.92;;;6.30;89.90;;;;;;5109346;28;20093;-44
2022/01/16 11:29:18;;;;;;;51.15;32.13;;;6.50;90.30;;;;;;5108791;28;20031;-44
2022/01/16 11:31:49;;;;;;;47.58;29.15;;;6.50;89.60;;;;;;5103104;28;20028;-44
2022/01/16 11:34:15;;;;;;;55.47;31.63;;;6.60;89.70;;;;;;5096943;28;20051;-44
2022/01/16 11:36:43;;;;;;;47.92;28.13;;;6.70;90.10;;;;;;5105173;28;20036;-44
2022/01/16 11:39:13;;;;;;;45.53;27.90;;;6.90;89.10;;;;;;5096155;28;20870;-44
2022/01/16 11:41:59;;;;;;;42.05;27.08;;;6.90;88.80;;;;;;5114155;28;20107;-44
2022/01/16 11:44:28;;;;;;;43.97;24.55;;;7.00;89.30;;;;;;5103350;28;20027;-44
2022/01/16 11:46:57;;;;;;;35.95;24.35;;;6.80;88.80;;;;;;5105703;28;20020;-43
2022/01/16 11:49:42;;;;;;;38.37;23.63;;;6.90;88.80;;;;;;5108111;28;20138;-43
2022/01/16 11:52:15;;;;;;;39.03;25.05;;;7.00;89.30;;;;;;5104137;28;20900;-45
2022/01/16 11:54:50;;;;;;;41.92;28.35;;;7.00;88.90;;;;;;5089330;28;20467;-44
2022/01/16 11:57:36;;;;;;;46.42;27.05;;;7.10;88.60;;;;;;5088819;28;20027;-43
2022/01/16 12:00:12;;;;;;;44.60;29.42;;;7.10;88.80;;;;;;5104862;28;20093;-43
2022/01/16 12:02:45;;;;;;;39.28;28.15;;;7.20;88.50;;;;;;5101460;28;20457;-44
2022/01/16 12:05:27;;;;;;;44.92;28.42;;;7.30;88.40;;;;;;5105070;28;20065;-45
2022/01/16 12:08:07;;;;;;;43.72;26.38;;;7.30;88.30;;;;;;5104891;28;20438;-43
2022/01/16 12:10:47;;;;;;;51.40;29.02;;;7.30;88.00;;;;;;5082654;28;20052;-46
2022/01/16 12:13:44;;;;;;;41.47;27.83;;;7.40;88.00;;;;;;5100140;28;20370;-44
2022/01/16 12:16:42;;;;;;;38.70;26.77;;;7.30;87.90;;;;;;5079531;28;20024;-44
2022/01/16 12:19:46;;;;;;;42.83;27.88;;;7.30;88.20;;;;;;5087355;28;20119;-43
2022/01/16 12:22:15;;;;;;;44.28;29.30;;;7.30;88.00;;;;;;5105312;28;20054;-43
2022/01/16 12:24:45;;;;;;;44.72;28.70;;;7.40;88.00;;;;;;5087315;28;20024;-45
2022/01/16 12:27:25;;;;;;;;;;;7.40;87.80;;;;;;5104513;28;20055;-44
2022/01/16 12:30:24;;;;;;;41.42;25.58;;;7.40;88.00;;;;;;5085530;28;20312;-44
2022/01/16 12:32:59;;;;;;;45.22;26.95;;;7.20;88.00;;;;;;5097122;28;20108;-44
2022/01/16 12:35:51;;;;;;;43.40;26.40;;;7.10;88.30;;;;;;5110166;28;20111;-44
2022/01/16 12:38:23;;;;;;;40.78;26.30;;;7.00;88.60;;;;;;5088022;28;20023;-44
2022/01/16 12:41:18;;;;;;;40.95;25.33;;;7.00;88.80;;;;;;5096392;28;20084;-44
2022/01/16 12:43:57;;;;;;;39.72;25.85;;;6.90;88.90;;;;;;5067229;28;20454;-44
2022/01/16 12:46:34;;;;;;;36.42;22.80;;;6.80;89.10;;;;;;5052112;28;20115;-44
2022/01/16 12:49:11;;;;;;;42.40;26.13;;;6.80;89.40;;;;;;5066712;28;20485;-42
2022/01/16 12:51:41;;;;;;;40.88;25.50;;;6.70;89.50;;;;;;5050324;28;20040;-45
2022/01/16 12:54:28;;;;;;;;;;;6.70;89.60;;;;;;5050745;28;20013;-44
2022/01/16 12:56:59;;;;;;;41.72;25.30;;;6.70;89.70;;;;;;5069916;28;20253;-42
2022/01/16 12:59:35;;;;;;;51.42;29.05;;;6.70;89.80;;;;;;5060111;28;20029;-44
2022/01/16 13:02:05;;;;;;;44.47;25.70;;;6.70;89.80;;;;;;5049210;28;20443;-44
2022/01/16 13:04:50;;;;;;;43.22;24.58;;;6.70;89.80;;;;;;5048561;28;20028;-43
2022/01/16 13:07:18;;;;;;;38.97;25.73;;;6.60;89.90;;;;;;5049683;28;20038;-42
2022/01/16 13:09:48;;;;;;;52.50;26.35;;;6.60;89.90;;;;;;5049780;28;20034;-43
2022/01/16 13:12:14;;;;;;;38.95;23.33;;;6.60;90.10;;;;;;5054822;28;20111;-46
2022/01/16 13:14:46;;;;;;;43.15;24.58;;;6.70;90.20;;;;;;5059967;28;20048;-46
2022/01/16 13:17:14;;;;;;;44.08;24.17;;;6.70;90.20;;;;;;5049099;28;20090;-44
2022/01/16 13:20:01;;;;;;;38.28;23.55;;;6.70;90.20;;;;;;5048786;28;20039;-44
2022/01/16 13:22:37;;;;;;;31.10;21.90;;;6.70;90.20;;;;;;5047047;28;20033;-43
2022/01/16 13:25:07;;;;;;;35.90;22.63;;;6.70;90.20;;;;;;5039051;28;20049;-46
2022/01/16 13:27:34;;;;;;;34.55;21.92;;;6.70;90.30;;;;;;5043413;28;20107;-44
2022/01/16 13:30:17;;;;;;;30.92;20.35;;;6.70;90.20;;;;;;5044951;28;20029;-43
2022/01/16 13:32:44;;;;;;;40.53;21.88;;;6.70;90.20;;;;;;5042492;28;20040;-43
2022/01/16 13:35:31;;;;;;;40.80;22.30;;;6.70;90.30;;;;;;5044229;28;20063;-43